Time;durP1;ratioP1;P1;durP2;ratioP2;P2;SDS_P1;SDS_P2;PMS_P1;PMS_P2;Temp;Humidity;BMP_temperature;BMP_pressure;BME280_temperature;BME280_humidity;BME280_pressure;Samples;Min_cycle;Max_cycle;Signal;HPM_P1;HPM_P2
2022/11/13 00:01:23;;;;;;;7.78;4.30;;;24.40;67.80;;;;;;4088420;28;20850;-56
2022/11/13 00:03:45;;;;;;;9.98;6.32;;;24.40;68.00;;;;;;4090382;28;20039;-56
2022/11/13 00:06:09;;;;;;;7.60;6.60;;;24.40;67.60;;;;;;4106677;28;20093;-58
2022/11/13 00:08:32;;;;;;;9.68;6.65;;;24.40;67.90;;;;;;4105612;28;20093;-56
2022/11/13 00:11:13;;;;;;;9.10;6.55;;;24.40;68.30;;;;;;4107229;28;20035;-53
2022/11/13 00:13:36;;;;;;;17.45;6.93;;;24.40;68.60;;;;;;4100971;28;20042;-57
2022/11/13 00:16:05;;;;;;;16.88;7.22;;;24.40;68.50;;;;;;4110260;28;20038;-50
2022/11/13 00:18:31;;;;;;;18.77;6.90;;;24.40;68.50;;;;;;4108897;28;20046;-53
2022/11/13 00:20:54;;;;;;;14.95;8.63;;;24.50;68.30;;;;;;4099217;28;20099;-50
2022/11/13 00:23:16;;;;;;;13.80;8.98;;;24.50;68.70;;;;;;4109458;28;20484;-45
2022/11/13 00:25:39;;;;;;;18.25;8.07;;;24.50;68.80;;;;;;4103864;28;20062;-44
2022/11/13 00:28:01;;;;;;;30.88;9.60;;;24.50;68.90;;;;;;4111937;28;20581;-42
2022/11/13 00:30:27;;;;;;;16.88;9.52;;;24.50;69.00;;;;;;4106620;28;20042;-43
2022/11/13 00:32:49;;;;;;;16.35;8.93;;;24.50;69.00;;;;;;4099842;28;20043;-44
2022/11/13 00:35:12;;;;;;;15.25;8.45;;;24.50;68.80;;;;;;4106572;28;20054;-46
2022/11/13 00:37:35;;;;;;;15.68;8.13;;;24.50;69.00;;;;;;4108619;28;20034;-50
2022/11/13 00:39:57;;;;;;;14.07;8.02;;;24.50;68.90;;;;;;4107417;28;20049;-47
2022/11/13 00:42:20;;;;;;;9.70;7.88;;;24.60;68.90;;;;;;4109518;28;20136;-48
2022/11/13 00:44:42;;;;;;;18.13;7.70;;;24.60;69.00;;;;;;4100361;28;20529;-54
2022/11/13 00:47:05;;;;;;;10.75;6.78;;;24.60;69.10;;;;;;4099962;28;20055;-51
2022/11/13 00:49:28;;;;;;;9.65;6.53;;;24.60;68.90;;;;;;4100823;28;20038;-52
2022/11/13 00:51:50;;;;;;;10.02;6.43;;;24.60;68.80;;;;;;4098059;28;20092;-49
2022/11/13 00:54:13;;;;;;;7.53;5.78;;;24.70;68.80;;;;;;4101025;28;20053;-52
2022/11/13 00:56:35;;;;;;;11.00;5.57;;;24.70;68.70;;;;;;4096446;28;20051;-47
2022/11/13 00:58:58;;;;;;;18.30;6.47;;;24.70;68.80;;;;;;4101137;28;20074;-46
2022/11/13 01:01:21;;;;;;;8.02;5.88;;;24.70;69.10;;;;;;4121972;28;20157;-49
2022/11/13 01:03:44;;;;;;;7.78;6.22;;;24.70;69.40;;;;;;4098884;28;20055;-48
2022/11/13 01:06:22;;;;;;;12.07;6.07;;;24.70;69.80;;;;;;4102735;28;20047;-52
2022/11/13 01:08:45;;;;;;;7.30;5.20;;;24.70;69.80;;;;;;4108999;28;20047;-47
2022/11/13 01:11:13;;;;;;;11.32;6.35;;;24.70;69.80;;;;;;4096578;28;20491;-45
2022/11/13 01:13:36;;;;;;;10.52;6.82;;;24.80;69.70;;;;;;4094275;28;20035;-46
2022/11/13 01:15:58;;;;;;;9.82;8.15;;;24.80;69.30;;;;;;4095713;28;20047;-45
2022/11/13 01:18:21;;;;;;;10.02;7.90;;;24.80;69.00;;;;;;4084965;28;20039;-47
2022/11/13 01:20:45;;;;;;;8.75;7.82;;;24.80;68.80;;;;;;4099923;28;20054;-47
2022/11/13 01:23:08;;;;;;;10.07;7.40;;;24.80;69.20;;;;;;4097234;28;20038;-49
2022/11/13 01:25:31;;;;;;;10.60;7.10;;;24.80;69.00;;;;;;4095602;28;20518;-48
2022/11/13 01:27:53;;;;;;;9.07;6.20;;;24.90;68.90;;;;;;4092000;28;20417;-48
2022/11/13 01:30:16;;;;;;;9.02;6.68;;;24.90;68.90;;;;;;4084827;28;20100;-49
2022/11/13 01:32:39;;;;;;;8.98;6.30;;;24.90;68.80;;;;;;4096063;28;20074;-50
2022/11/13 01:35:01;;;;;;;7.95;5.53;;;24.90;68.60;;;;;;4095819;28;20035;-49
2022/11/13 01:37:24;;;;;;;6.85;4.97;;;24.90;68.40;;;;;;4097140;28;20412;-51
2022/11/13 01:39:46;;;;;;;7.72;5.30;;;25.00;68.40;;;;;;4100334;28;21005;-50
2022/11/13 01:42:09;;;;;;;7.70;4.20;;;25.00;68.40;;;;;;4096743;28;20513;-53
2022/11/13 01:45:01;;;;;;;5.85;4.60;;;25.00;68.30;;;;;;4097568;28;20034;-48
2022/11/13 01:47:24;;;;;;;8.93;4.75;;;25.00;68.30;;;;;;4087153;28;20548;-47
2022/11/13 01:49:51;;;;;;;7.20;4.88;;;25.10;68.30;;;;;;4115777;28;20468;-51
2022/11/13 01:52:19;;;;;;;7.55;4.15;;;25.10;68.20;;;;;;4102776;28;20050;-48
2022/11/13 01:54:55;;;;;;;6.95;3.83;;;25.10;67.90;;;;;;4102324;28;20030;-51
2022/11/13 01:57:18;;;;;;;5.13;3.90;;;25.10;67.70;;;;;;4112345;28;20047;-50
2022/11/13 01:59:47;;;;;;;5.30;3.92;;;25.20;67.70;;;;;;4095548;28;20097;-53
2022/11/13 02:02:10;;;;;;;5.78;3.72;;;25.20;67.80;;;;;;4100331;28;20515;-48
2022/11/13 02:04:33;;;;;;;4.70;3.83;;;25.20;67.80;;;;;;4096872;28;20429;-52
2022/11/13 02:07:06;;;;;;;5.82;3.67;;;25.20;67.90;;;;;;4099539;28;20367;-47
2022/11/13 02:09:37;;;;;;;7.25;3.50;;;25.20;68.00;;;;;;4095198;28;20035;-53
2022/11/13 02:12:00;;;;;;;10.38;4.18;;;25.20;67.90;;;;;;4098041;28;20049;-47
2022/11/13 02:14:26;;;;;;;8.00;5.30;;;25.30;67.70;;;;;;4098033;28;20073;-46
2022/11/13 02:16:52;;;;;;;7.43;5.13;;;25.30;67.00;;;;;;4103203;28;20038;-45
2022/11/13 02:19:25;;;;;;;9.93;4.75;;;25.30;67.30;;;;;;4099306;28;20517;-46
2022/11/13 02:21:55;;;;;;;17.20;5.20;;;25.30;67.50;;;;;;4097873;28;20083;-47
2022/11/13 02:24:42;;;;;;;10.45;4.60;;;25.40;67.60;;;;;;4098729;28;20034;-50
2022/11/13 02:27:15;;;;;;;8.80;4.90;;;25.40;67.20;;;;;;4096459;28;20097;-46
2022/11/13 02:29:37;;;;;;;12.20;4.82;;;25.40;67.50;;;;;;4095218;28;20043;-51
2022/11/13 02:32:00;;;;;;;7.93;4.82;;;25.40;67.60;;;;;;4099371;28;20043;-46
2022/11/13 02:34:22;;;;;;;12.55;4.88;;;25.40;67.60;;;;;;4093367;28;20513;-45
2022/11/13 02:36:45;;;;;;;9.55;3.85;;;25.40;67.50;;;;;;4101640;28;20054;-47
2022/11/13 02:39:11;;;;;;;12.52;3.70;;;25.50;67.30;;;;;;4102230;28;20409;-45
2022/11/13 02:41:33;;;;;;;6.45;4.00;;;25.50;67.00;;;;;;4093768;28;20118;-47
2022/11/13 02:43:56;;;;;;;5.20;3.30;;;25.50;66.90;;;;;;4105416;28;20054;-46
2022/11/13 02:46:18;;;;;;;5.63;3.20;;;25.50;66.60;;;;;;4105359;28;20043;-48
2022/11/13 02:48:41;;;;;;;4.95;3.25;;;25.50;66.50;;;;;;4089206;28;20149;-47
2022/11/13 02:51:04;;;;;;;3.55;2.60;;;25.60;67.10;;;;;;4103984;28;20050;-52
2022/11/13 02:53:27;;;;;;;5.57;3.17;;;25.60;66.30;;;;;;4098616;28;20038;-46
2022/11/13 02:55:49;;;;;;;4.00;2.60;;;25.50;66.30;;;;;;4101814;28;20324;-46
2022/11/13 02:58:12;;;;;;;3.47;2.45;;;25.60;66.20;;;;;;4105587;28;20038;-47
2022/11/13 03:00:34;;;;;;;6.18;2.45;;;25.60;66.10;;;;;;4101460;28;20034;-48
2022/11/13 03:02:57;;;;;;;3.13;2.30;;;25.60;66.10;;;;;;4093584;28;20418;-51
2022/11/13 03:05:20;;;;;;;2.88;2.40;;;25.60;66.00;;;;;;4133301;28;20534;-46
2022/11/13 03:07:42;;;;;;;3.75;2.00;;;25.60;65.90;;;;;;4166164;28;20123;-49
2022/11/13 03:10:06;;;;;;;3.03;2.17;;;25.70;66.00;;;;;;4149581;28;20107;-51
2022/11/13 03:12:28;;;;;;;2.78;2.22;;;25.70;65.90;;;;;;4174549;28;20039;-47
2022/11/13 03:14:51;;;;;;;2.88;2.13;;;25.70;65.80;;;;;;4166106;28;20037;-50
2022/11/13 03:17:13;;;;;;;2.47;2.00;;;25.70;65.80;;;;;;4175121;28;20040;-46
2022/11/13 03:19:36;;;;;;;2.08;1.75;;;25.70;65.70;;;;;;4163287;28;20523;-50
2022/11/13 03:21:58;;;;;;;2.40;1.77;;;25.70;65.70;;;;;;4162942;28;20037;-49
2022/11/13 03:24:21;;;;;;;2.15;1.70;;;25.70;65.60;;;;;;4163278;28;20036;-48
2022/11/13 03:26:44;;;;;;;2.65;1.67;;;25.80;65.60;;;;;;4166229;28;20045;-48
2022/11/13 03:29:06;;;;;;;2.25;1.63;;;25.80;65.50;;;;;;4164542;28;20488;-50
2022/11/13 03:31:29;;;;;;;2.90;1.80;;;25.80;65.50;;;;;;4156342;28;20090;-50
2022/11/13 03:33:54;;;;;;;1.80;1.42;;;25.80;65.70;;;;;;4172103;28;20065;-50
2022/11/13 03:36:17;;;;;;;1.90;1.50;;;25.80;65.60;;;;;;4172424;28;20047;-52
2022/11/13 03:38:40;;;;;;;2.45;1.55;;;25.80;65.50;;;;;;4173390;28;20060;-50
2022/11/13 03:41:03;;;;;;;1.90;1.50;;;25.80;65.30;;;;;;4173932;28;20025;-49
2022/11/13 03:43:25;;;;;;;1.97;1.40;;;25.90;65.40;;;;;;4171460;28;20041;-51
2022/11/13 03:45:48;;;;;;;2.47;1.60;;;25.90;65.30;;;;;;4173533;28;20040;-51
2022/11/13 03:48:12;;;;;;;1.45;1.20;;;25.90;65.20;;;;;;4178065;28;20118;-47
2022/11/13 03:50:35;;;;;;;1.67;1.38;;;25.90;65.10;;;;;;4154277;28;20452;-49
2022/11/13 03:52:58;;;;;;;1.80;1.35;;;26.00;65.10;;;;;;4164506;28;20469;-51
2022/11/13 03:55:20;;;;;;;1.50;1.17;;;26.00;65.70;;;;;;4166155;28;20551;-55
2022/11/13 03:57:43;;;;;;;2.33;1.65;;;26.00;64.90;;;;;;4170341;28;20044;-49
2022/11/13 04:00:06;;;;;;;2.50;1.30;;;26.00;64.90;;;;;;4165349;28;20048;-52
2022/11/13 04:02:28;;;;;;;1.67;1.30;;;26.00;64.80;;;;;;4177983;28;20082;-53
2022/11/13 04:04:51;;;;;;;1.73;1.38;;;26.00;64.90;;;;;;4177313;28;20052;-53
2022/11/13 04:07:14;;;;;;;2.20;1.33;;;26.00;64.80;;;;;;4177181;28;20420;-53
2022/11/13 04:09:36;;;;;;;2.53;1.40;;;26.00;64.80;;;;;;4174120;28;20048;-52
2022/11/13 04:11:59;;;;;;;1.58;1.42;;;26.00;64.80;;;;;;4161733;28;20037;-51
2022/11/13 04:14:21;;;;;;;1.55;1.25;;;26.00;64.70;;;;;;4172724;28;20040;-51
2022/11/13 04:16:44;;;;;;;1.75;1.15;;;26.00;64.70;;;;;;4162175;28;20602;-50
2022/11/13 04:19:06;;;;;;;1.20;1.10;;;26.00;65.30;;;;;;4171372;28;20033;-50
2022/11/13 04:21:29;;;;;;;1.70;1.15;;;26.00;64.70;;;;;;4165367;28;20045;-51
2022/11/13 04:23:51;;;;;;;1.58;0.95;;;26.00;64.70;;;;;;4167109;28;20075;-54
2022/11/13 04:26:14;;;;;;;2.47;1.10;;;26.00;64.60;;;;;;4165374;28;20518;-51
2022/11/13 04:28:36;;;;;;;2.35;1.70;;;26.00;65.20;;;;;;4168126;28;20044;-50
2022/11/13 04:30:59;;;;;;;3.97;1.67;;;26.00;64.70;;;;;;4163760;28;20488;-49
2022/11/13 04:33:22;;;;;;;3.47;1.88;;;26.00;64.70;;;;;;4163420;28;20067;-51
2022/11/13 04:35:45;;;;;;;3.22;1.98;;;26.00;64.80;;;;;;4162022;28;20944;-48
2022/11/13 04:38:07;;;;;;;2.13;1.73;;;26.00;64.70;;;;;;4164626;28;20040;-49
2022/11/13 04:40:30;;;;;;;2.75;1.80;;;26.10;64.80;;;;;;4163534;28;20060;-48
2022/11/13 04:42:52;;;;;;;3.10;1.77;;;26.10;64.70;;;;;;4164213;28;20040;-51
2022/11/13 04:45:17;;;;;;;3.67;1.77;;;26.20;64.70;;;;;;4162326;28;20040;-47
2022/11/13 04:47:39;;;;;;;2.33;1.77;;;26.20;64.50;;;;;;4165508;28;20480;-53
2022/11/13 04:50:02;;;;;;;2.13;1.70;;;26.20;64.30;;;;;;4170836;28;20051;-52
2022/11/13 04:52:27;;;;;;;2.27;1.70;;;26.20;64.20;;;;;;4163281;28;20502;-50
2022/11/13 04:54:49;;;;;;;2.47;1.80;;;26.20;64.20;;;;;;4165175;28;20284;-47
2022/11/13 04:57:12;;;;;;;2.55;1.75;;;26.20;64.10;;;;;;4175132;28;20496;-48
2022/11/13 04:59:34;;;;;;;3.90;1.80;;;26.30;64.10;;;;;;4152484;28;20045;-48
2022/11/13 05:01:57;;;;;;;1.80;1.48;;;26.20;64.10;;;;;;4174915;28;20457;-50
2022/11/13 05:04:20;;;;;;;2.35;1.70;;;26.20;64.00;;;;;;4179002;28;20403;-48
2022/11/13 05:06:42;;;;;;;2.28;1.70;;;26.20;64.00;;;;;;4103558;28;20510;-48
2022/11/13 05:09:05;;;;;;;3.30;1.70;;;26.20;64.00;;;;;;4088032;28;20039;-47
2022/11/13 05:11:28;;;;;;;2.28;1.67;;;26.20;64.00;;;;;;4097900;28;20507;-50
2022/11/13 05:13:50;;;;;;;2.20;1.60;;;26.20;64.10;;;;;;4096642;28;20456;-51
2022/11/13 05:16:14;;;;;;;2.75;1.70;;;26.20;64.00;;;;;;4105560;28;20126;-51
2022/11/13 05:18:36;;;;;;;;;;;26.20;64.00;;;;;;4107295;28;20045;-49
2022/11/13 05:20:59;;;;;;;1.88;1.55;;;26.20;64.00;;;;;;4106350;28;19913;-49
2022/11/13 05:23:22;;;;;;;2.40;1.42;;;26.20;63.90;;;;;;4103476;28;20046;-50
2022/11/13 05:25:44;;;;;;;2.00;1.58;;;26.20;63.90;;;;;;4102136;28;20080;-54
2022/11/13 05:28:07;;;;;;;1.92;1.50;;;26.20;63.90;;;;;;4094847;28;20978;-50
2022/11/13 05:30:29;;;;;;;2.17;1.48;;;26.30;64.00;;;;;;4096546;28;20042;-49
2022/11/13 05:32:52;;;;;;;2.00;1.55;;;26.20;63.90;;;;;;4099487;28;20152;-48
2022/11/13 05:35:15;;;;;;;2.15;1.67;;;26.30;63.90;;;;;;4095773;28;20506;-53
2022/11/13 05:37:37;;;;;;;2.03;1.60;;;26.30;64.00;;;;;;4100429;28;20415;-50
2022/11/13 05:40:00;;;;;;;1.70;1.33;;;26.30;63.90;;;;;;4097715;28;20051;-49
2022/11/13 05:42:22;;;;;;;1.92;1.60;;;26.20;63.90;;;;;;4095751;28;20491;-48
2022/11/13 05:44:45;;;;;;;1.58;1.40;;;26.30;64.00;;;;;;4106964;28;20275;-48
2022/11/13 05:47:07;;;;;;;1.63;1.40;;;26.20;63.90;;;;;;4102260;28;20046;-49
2022/11/13 05:49:30;;;;;;;2.38;1.55;;;26.20;63.90;;;;;;4106533;28;20034;-49
2022/11/13 05:51:54;;;;;;;1.92;1.30;;;26.30;63.90;;;;;;4104676;28;20571;-53
2022/11/13 05:54:16;;;;;;;2.28;1.50;;;26.30;64.00;;;;;;4104681;28;20038;-50
2022/11/13 05:56:39;;;;;;;2.03;1.60;;;26.30;63.90;;;;;;4101192;28;20118;-51
2022/11/13 05:59:03;;;;;;;2.25;1.17;;;26.30;63.90;;;;;;4093623;28;20039;-49
2022/11/13 06:01:26;;;;;;;;;;;26.30;63.90;;;;;;4104291;28;20041;-51
2022/11/13 06:03:50;;;;;;;1.40;1.03;;;26.20;64.50;;;;;;4104248;28;20308;-48
2022/11/13 06:06:15;;;;;;;1.77;1.48;;;26.30;64.00;;;;;;4093473;28;20055;-50
2022/11/13 06:08:40;;;;;;;1.60;1.30;;;26.20;63.90;;;;;;4094506;28;20430;-49
2022/11/13 06:11:17;;;;;;;2.17;1.50;;;26.20;63.90;;;;;;4095556;28;20509;-48
2022/11/13 06:13:40;;;;;;;3.65;1.63;;;26.30;64.00;;;;;;4093592;28;20053;-48
2022/11/13 06:16:07;;;;;;;2.15;1.40;;;26.20;64.00;;;;;;4097089;28;20053;-49
2022/11/13 06:18:31;;;;;;;2.55;1.33;;;26.20;64.10;;;;;;4094886;28;20046;-50
2022/11/13 06:20:54;;;;;;;2.45;1.52;;;26.20;64.00;;;;;;4095587;28;20039;-51
2022/11/13 06:23:16;;;;;;;1.90;1.30;;;26.20;64.10;;;;;;4124729;28;20054;-48
2022/11/13 06:25:39;;;;;;;1.55;1.33;;;26.20;64.10;;;;;;4097933;28;20524;-52
2022/11/13 06:28:01;;;;;;;3.15;1.50;;;26.20;64.50;;;;;;4098116;28;20512;-50
2022/11/13 06:30:24;;;;;;;4.68;1.50;;;26.20;64.80;;;;;;4100194;28;20039;-49
2022/11/13 06:32:52;;;;;;;3.13;1.38;;;26.30;65.40;;;;;;4102523;28;20035;-46
2022/11/13 06:35:15;;;;;;;2.10;1.33;;;26.30;65.70;;;;;;4087507;28;20223;-51
2022/11/13 06:37:37;;;;;;;1.80;1.13;;;26.40;66.00;;;;;;4085366;28;20038;-54
2022/11/13 06:40:00;;;;;;;4.97;1.40;;;26.40;66.10;;;;;;4095978;28;20163;-56
2022/11/13 06:42:22;;;;;;;1.95;0.88;;;26.50;66.20;;;;;;4092534;28;20093;-51
2022/11/13 06:44:45;;;;;;;1.52;1.08;;;26.50;66.20;;;;;;4099310;28;21063;-52
2022/11/13 06:47:08;;;;;;;1.90;1.00;;;26.50;66.10;;;;;;4098514;28;20054;-54
2022/11/13 06:49:30;;;;;;;2.15;1.15;;;26.50;66.00;;;;;;4097112;28;20034;-52
2022/11/13 06:51:53;;;;;;;1.60;1.00;;;26.60;65.90;;;;;;4099187;28;20047;-55
2022/11/13 06:54:16;;;;;;;2.30;1.13;;;26.60;65.80;;;;;;4094986;28;20177;-54
2022/11/13 06:56:44;;;;;;;2.65;1.20;;;26.70;65.90;;;;;;4094616;28;20038;-51
2022/11/13 06:59:06;;;;;;;1.25;0.90;;;26.70;65.80;;;;;;4087192;28;20035;-51
2022/11/13 07:01:29;;;;;;;1.05;0.77;;;26.70;65.80;;;;;;4097961;28;20502;-50
2022/11/13 07:03:52;;;;;;;0.75;0.57;;;26.80;65.70;;;;;;4082636;28;20487;-54
2022/11/13 07:06:18;;;;;;;1.50;0.90;;;26.80;65.70;;;;;;4097637;28;20067;-53
2022/11/13 07:08:42;;;;;;;0.93;0.77;;;26.80;65.50;;;;;;4094049;28;20343;-49
2022/11/13 07:11:06;;;;;;;1.88;0.90;;;26.90;65.60;;;;;;4097958;28;20062;-53
2022/11/13 07:13:29;;;;;;;1.13;0.80;;;26.90;65.60;;;;;;4097484;28;20043;-49
2022/11/13 07:15:52;;;;;;;0.70;0.60;;;26.90;65.50;;;;;;4091925;28;20089;-50
2022/11/13 07:18:15;;;;;;;1.17;0.70;;;27.00;65.50;;;;;;4098057;28;20454;-55
2022/11/13 07:20:37;;;;;;;3.67;0.90;;;27.00;65.40;;;;;;4102523;28;20077;-53
2022/11/13 07:23:01;;;;;;;1.08;0.70;;;27.00;65.40;;;;;;4100490;28;20677;-47
2022/11/13 07:25:25;;;;;;;0.70;0.60;;;27.00;65.40;;;;;;4099924;28;20414;-54
2022/11/13 07:27:47;;;;;;;;;;;27.10;65.40;;;;;;4104804;28;20569;-49
2022/11/13 07:30:10;;;;;;;3.58;0.85;;;27.10;65.40;;;;;;4099080;28;19914;-48
2022/11/13 07:32:33;;;;;;;0.73;0.60;;;27.10;65.40;;;;;;4096363;28;20058;-47
2022/11/13 07:34:56;;;;;;;1.45;0.80;;;27.10;65.40;;;;;;4094960;28;20586;-47
2022/11/13 07:37:18;;;;;;;1.75;0.68;;;27.10;65.40;;;;;;4102894;28;20042;-50
2022/11/13 07:39:41;;;;;;;0.75;0.70;;;27.20;65.60;;;;;;4105552;28;20065;-53
2022/11/13 07:42:03;;;;;;;0.82;0.73;;;27.20;65.60;;;;;;4103445;28;20046;-52
2022/11/13 07:44:26;;;;;;;0.60;0.60;;;27.20;65.50;;;;;;4095196;28;20120;-47
2022/11/13 07:46:48;;;;;;;1.27;0.77;;;27.20;65.40;;;;;;4106616;28;20111;-54
2022/11/13 07:49:11;;;;;;;1.05;0.77;;;27.20;65.30;;;;;;4104153;28;20046;-53
2022/11/13 07:51:33;;;;;;;0.80;0.80;;;27.20;65.30;;;;;;4105336;28;20058;-53
2022/11/13 07:53:56;;;;;;;1.30;0.95;;;27.30;65.40;;;;;;4108987;28;20041;-50
2022/11/13 07:56:21;;;;;;;1.20;0.70;;;27.30;65.30;;;;;;4104832;28;20108;-53
2022/11/13 07:58:44;;;;;;;1.00;0.73;;;27.30;65.30;;;;;;4099429;28;20490;-50
2022/11/13 08:01:06;;;;;;;3.72;1.08;;;27.30;65.20;;;;;;4098821;28;20467;-54
2022/11/13 08:03:29;;;;;;;1.58;1.20;;;27.30;65.00;;;;;;4096899;28;20112;-52
2022/11/13 08:05:53;;;;;;;1.88;1.33;;;27.30;64.10;;;;;;4098882;28;20639;-52
2022/11/13 08:08:15;;;;;;;1.20;1.00;;;27.30;64.40;;;;;;4099069;28;20050;-50
2022/11/13 08:10:40;;;;;;;1.15;1.00;;;27.20;64.90;;;;;;4085032;28;20077;-51
2022/11/13 08:13:07;;;;;;;5.90;1.20;;;27.20;65.00;;;;;;4097078;28;20027;-47
2022/11/13 08:15:31;;;;;;;1.70;1.10;;;27.30;65.00;;;;;;4096913;28;20053;-51
2022/11/13 08:17:56;;;;;;;1.85;1.10;;;27.30;65.10;;;;;;4096921;28;20031;-50
2022/11/13 08:20:18;;;;;;;2.95;1.17;;;27.30;65.20;;;;;;4098956;28;20543;-47
2022/11/13 08:22:41;;;;;;;2.58;1.20;;;27.30;65.10;;;;;;4099441;28;20039;-49
2022/11/13 08:25:04;;;;;;;2.17;0.90;;;27.40;65.10;;;;;;4099596;28;20042;-49
2022/11/13 08:27:26;;;;;;;1.43;0.90;;;27.30;65.00;;;;;;4101204;28;20054;-48
2022/11/13 08:29:51;;;;;;;3.22;1.20;;;27.40;65.00;;;;;;4094874;28;20283;-53
2022/11/13 08:32:18;;;;;;;4.50;1.30;;;27.40;64.70;;;;;;4092740;28;20043;-52
2022/11/13 08:34:40;;;;;;;1.30;0.90;;;27.30;64.80;;;;;;4083438;28;20518;-53
2022/11/13 08:37:03;;;;;;;1.88;1.05;;;27.30;64.90;;;;;;4092601;28;20045;-55
2022/11/13 08:39:26;;;;;;;1.10;0.80;;;27.30;64.90;;;;;;4091948;28;20038;-56
2022/11/13 08:41:52;;;;;;;0.98;0.73;;;27.30;65.00;;;;;;4095841;28;20142;-54
2022/11/13 08:44:15;;;;;;;0.95;0.77;;;27.30;65.10;;;;;;4087884;28;20039;-47
2022/11/13 08:46:37;;;;;;;2.30;0.80;;;27.30;65.10;;;;;;4097844;28;20100;-50
2022/11/13 08:49:00;;;;;;;0.77;0.77;;;27.30;65.30;;;;;;4100230;28;20457;-51
2022/11/13 08:51:22;;;;;;;0.93;0.65;;;27.40;65.30;;;;;;4097614;28;20062;-50
2022/11/13 08:53:45;;;;;;;1.05;0.60;;;27.40;65.10;;;;;;4097216;28;20069;-47
2022/11/13 08:56:07;;;;;;;0.65;0.60;;;27.50;65.20;;;;;;4096803;28;20422;-48
2022/11/13 08:58:30;;;;;;;1.25;0.73;;;27.50;65.00;;;;;;4095459;28;20053;-47
2022/11/13 09:00:53;;;;;;;0.70;0.60;;;27.50;64.90;;;;;;4078788;28;20043;-49
2022/11/13 09:03:15;;;;;;;1.00;0.70;;;27.50;64.90;;;;;;4097765;28;20047;-51
2022/11/13 09:05:38;;;;;;;0.88;0.60;;;27.60;64.90;;;;;;4094239;28;20066;-52
2022/11/13 09:08:01;;;;;;;1.27;0.75;;;27.60;64.70;;;;;;4090802;28;20046;-51
2022/11/13 09:10:24;;;;;;;1.70;0.57;;;27.50;64.50;;;;;;4095562;28;20039;-50
2022/11/13 09:12:46;;;;;;;2.20;0.60;;;27.60;64.80;;;;;;4089901;28;20110;-51
2022/11/13 09:15:10;;;;;;;0.98;0.70;;;27.50;64.60;;;;;;4094560;28;20122;-50
2022/11/13 09:17:33;;;;;;;0.73;0.60;;;27.50;64.70;;;;;;4094584;28;20046;-53
2022/11/13 09:19:55;;;;;;;0.60;0.60;;;27.60;65.40;;;;;;4122470;28;20068;-48
2022/11/13 09:22:18;;;;;;;1.15;0.75;;;27.60;64.70;;;;;;4098453;28;20652;-47
2022/11/13 09:24:44;;;;;;;0.93;0.50;;;27.60;64.80;;;;;;4092152;28;20038;-49
2022/11/13 09:27:07;;;;;;;1.05;0.73;;;27.60;65.40;;;;;;4110685;28;20584;-54
2022/11/13 09:29:30;;;;;;;0.90;0.70;;;27.60;64.90;;;;;;4103613;28;20038;-49
2022/11/13 09:31:52;;;;;;;2.17;0.75;;;27.60;64.80;;;;;;4102943;28;20490;-53
2022/11/13 09:34:15;;;;;;;2.03;0.77;;;27.60;64.80;;;;;;4094964;28;20043;-50
2022/11/13 09:36:37;;;;;;;0.75;0.63;;;27.60;64.70;;;;;;4100514;28;20159;-53
2022/11/13 09:39:00;;;;;;;2.10;0.60;;;27.70;64.70;;;;;;4101422;28;20888;-50
2022/11/13 09:41:30;;;;;;;2.13;0.82;;;27.70;64.80;;;;;;4097065;28;20034;-52
2022/11/13 09:43:55;;;;;;;0.80;0.65;;;27.70;64.80;;;;;;4129440;28;20039;-52
2022/11/13 09:46:47;;;;;;;0.77;0.63;;;27.70;64.70;;;;;;4098380;28;20136;-52
2022/11/13 09:49:12;;;;;;;0.90;0.60;;;27.70;64.70;;;;;;4097286;28;20057;-50
2022/11/13 09:51:38;;;;;;;0.73;0.50;;;27.70;64.70;;;;;;4099070;28;20150;-48
2022/11/13 09:54:08;;;;;;;0.57;0.50;;;27.70;64.70;;;;;;4101961;28;20030;-49
2022/11/13 09:56:41;;;;;;;0.93;0.60;;;27.70;64.70;;;;;;4105655;28;20043;-52
2022/11/13 09:59:22;;;;;;;0.80;0.60;;;27.70;64.60;;;;;;4098762;28;20035;-52
2022/11/13 10:02:03;;;;;;;0.70;0.50;;;27.70;64.60;;;;;;4095730;28;20568;-50
2022/11/13 10:04:47;;;;;;;0.95;0.60;;;27.70;64.60;;;;;;4098707;28;20467;-50
2022/11/13 10:07:28;;;;;;;1.50;0.80;;;27.70;64.60;;;;;;4098963;28;20478;-48
2022/11/13 10:10:19;;;;;;;0.70;0.57;;;27.70;64.70;;;;;;4092954;28;20045;-47
2022/11/13 10:12:43;;;;;;;0.57;0.47;;;27.70;64.70;;;;;;4092878;28;20031;-53
2022/11/13 10:15:08;;;;;;;1.42;0.68;;;27.80;64.70;;;;;;4096069;28;20374;-56
2022/11/13 10:18:08;;;;;;;1.08;0.70;;;27.70;64.70;;;;;;4098943;28;20383;-48
2022/11/13 10:20:31;;;;;;;1.25;0.60;;;27.70;64.70;;;;;;4099789;28;20043;-48
2022/11/13 10:23:19;;;;;;;0.75;0.50;;;27.70;64.70;;;;;;4096646;28;20120;-54
2022/11/13 10:25:44;;;;;;;1.85;0.80;;;27.70;64.60;;;;;;4099466;28;20039;-50
2022/11/13 10:28:22;;;;;;;0.50;0.47;;;27.80;64.70;;;;;;4096116;28;20498;-52
2022/11/13 10:30:46;;;;;;;0.50;0.50;;;27.80;64.70;;;;;;4099826;28;21073;-50
2022/11/13 10:33:14;;;;;;;1.45;0.55;;;27.80;64.70;;;;;;4096816;28;20045;-51
2022/11/13 10:36:13;;;;;;;1.20;0.70;;;27.80;64.70;;;;;;4101637;28;20584;-46
2022/11/13 10:39:08;;;;;;;0.65;0.60;;;27.80;64.60;;;;;;4106350;28;20049;-50
2022/11/13 10:41:31;;;;;;;1.38;0.60;;;27.80;64.70;;;;;;4103609;28;20112;-51
2022/11/13 10:44:19;;;;;;;0.60;0.60;;;27.80;64.70;;;;;;4111411;28;20092;-47
2022/11/13 10:46:41;;;;;;;0.85;0.68;;;27.80;64.70;;;;;;4103742;28;20042;-49
2022/11/13 10:49:27;;;;;;;1.45;0.80;;;27.80;64.70;;;;;;4100850;28;20043;-47
2022/11/13 10:51:57;;;;;;;2.15;0.73;;;27.80;64.80;;;;;;4101780;28;20034;-51
2022/11/13 10:54:32;;;;;;;2.42;0.80;;;27.80;64.70;;;;;;4105730;28;20668;-49
2022/11/13 10:57:04;;;;;;;1.50;0.63;;;27.80;64.70;;;;;;4102286;28;20043;-50
2022/11/13 10:59:37;;;;;;;0.80;0.70;;;27.80;64.80;;;;;;4103354;28;20062;-49
2022/11/13 11:02:18;;;;;;;0.90;0.80;;;27.80;64.70;;;;;;4092688;28;20041;-52
2022/11/13 11:04:41;;;;;;;1.33;1.10;;;27.80;64.80;;;;;;4102255;28;20043;-46
2022/11/13 11:07:19;;;;;;;0.60;0.60;;;27.80;64.80;;;;;;4102619;28;20046;-51
2022/11/13 11:09:45;;;;;;;1.15;0.70;;;27.70;64.80;;;;;;4089410;28;20081;-49
2022/11/13 11:12:22;;;;;;;1.35;0.82;;;27.80;64.90;;;;;;4100872;28;20046;-53
2022/11/13 11:14:57;;;;;;;0.63;0.63;;;27.70;64.80;;;;;;4101417;28;20042;-54
2022/11/13 11:17:40;;;;;;;1.63;0.60;;;27.80;64.90;;;;;;4093881;28;20041;-51
2022/11/13 11:20:13;;;;;;;0.95;0.63;;;27.80;64.80;;;;;;4107848;28;20029;-52
2022/11/13 11:22:39;;;;;;;1.48;0.90;;;27.80;64.90;;;;;;4086327;28;20141;-49
2022/11/13 11:25:13;;;;;;;0.88;0.70;;;27.80;65.00;;;;;;4093417;28;20482;-51
2022/11/13 11:27:47;;;;;;;1.08;0.77;;;27.80;64.90;;;;;;4101903;28;20128;-48
2022/11/13 11:30:22;;;;;;;0.75;0.60;;;27.80;65.00;;;;;;4095395;28;20424;-53
2022/11/13 11:33:08;;;;;;;0.98;0.70;;;27.70;64.90;;;;;;4103603;28;20038;-54
2022/11/13 11:36:13;;;;;;;1.08;0.80;;;27.80;64.90;;;;;;4102056;28;20539;-52
2022/11/13 11:39:28;;;;;;;0.75;0.57;;;27.80;64.90;;;;;;4101490;28;20055;-50
2022/11/13 11:42:00;;;;;;;1.13;0.80;;;27.80;64.90;;;;;;4048512;28;20049;-50
2022/11/13 11:44:38;;;;;;;1.27;0.80;;;27.80;65.50;;;;;;4052847;28;20507;-53
2022/11/13 11:47:01;;;;;;;1.02;0.70;;;27.80;64.80;;;;;;4091825;28;20077;-51
2022/11/13 11:49:26;;;;;;;0.85;0.75;;;27.80;65.00;;;;;;4095450;28;20042;-49
2022/11/13 11:52:24;;;;;;;2.80;0.77;;;27.80;64.90;;;;;;4099188;28;20047;-48
2022/11/13 11:55:16;;;;;;;1.92;0.98;;;27.80;65.00;;;;;;4111696;28;20035;-46
2022/11/13 11:57:53;;;;;;;1.67;0.68;;;27.70;65.00;;;;;;4112495;28;20042;-47
2022/11/13 12:00:20;;;;;;;0.90;0.70;;;27.80;65.00;;;;;;4107085;28;20505;-46
2022/11/13 12:03:20;;;;;;;0.88;0.70;;;27.80;65.00;;;;;;4107042;28;20112;-46
2022/11/13 12:06:21;;;;;;;1.42;0.70;;;27.70;65.00;;;;;;4101680;28;20054;-50
2022/11/13 12:09:05;;;;;;;2.13;0.68;;;27.70;65.00;;;;;;4098934;28;20046;-55
2022/11/13 12:11:31;;;;;;;1.17;0.80;;;27.70;64.90;;;;;;4097891;28;20075;-58
2022/11/13 12:14:02;;;;;;;0.82;0.70;;;27.70;65.00;;;;;;4096592;28;20485;-59
2022/11/13 12:16:46;;;;;;;1.08;0.80;;;27.70;65.00;;;;;;4096100;28;20450;-58
2022/11/13 12:19:25;;;;;;;2.38;0.73;;;27.70;65.00;;;;;;4100390;28;20047;-56
2022/11/13 12:21:56;;;;;;;0.65;0.60;;;27.60;65.00;;;;;;4099033;28;20034;-54
2022/11/13 12:24:52;;;;;;;4.50;1.20;;;27.70;65.10;;;;;;4099164;28;20488;-54
2022/11/13 12:27:35;;;;;;;1.83;0.93;;;27.70;65.10;;;;;;4098099;28;20046;-57
2022/11/13 12:30:20;;;;;;;4.57;0.95;;;27.60;65.10;;;;;;4101175;28;20039;-53
2022/11/13 12:32:50;;;;;;;5.30;1.10;;;27.70;65.30;;;;;;4110628;28;20556;-49
2022/11/13 12:35:24;;;;;;;5.38;1.75;;;27.60;65.20;;;;;;4097202;28;20045;-54
2022/11/13 12:37:57;;;;;;;2.40;1.17;;;27.70;65.20;;;;;;4083435;28;20045;-57
2022/11/13 12:40:38;;;;;;;5.05;1.23;;;27.70;65.20;;;;;;4089398;28;20510;-58
2022/11/13 12:43:19;;;;;;;2.83;0.63;;;27.60;65.10;;;;;;4102475;28;20560;-58